Time;durP1;ratioP1;P1;durP2;ratioP2;P2;SDS_P1;SDS_P2;PMS_P1;PMS_P2;Temp;Humidity;BMP_temperature;BMP_pressure;BME280_temperature;BME280_humidity;BME280_pressure;Samples;Min_cycle;Max_cycle;Signal;HPM_P1;HPM_P2
2023/05/11 00:01:32;;;;;;;;;;;;;;;20.50;58.80;101203.13;5100530;27;7771;-60
2023/05/11 00:04:24;;;;;;;;;;;;;;;20.49;58.86;101198.63;5104645;27;7834;-57
2023/05/11 00:06:51;;;;;;;;;;;;;;;20.50;59.35;101205.09;5112310;27;8152;-57
2023/05/11 00:09:18;;;;;;;;;;;;;;;20.49;59.44;101200.63;5138954;27;12437;-57
2023/05/11 00:11:45;;;;;;;;;;;;;;;20.50;59.22;101197.50;5140745;27;12105;-57
2023/05/11 00:14:12;;;;;;;;;;;;;;;20.49;59.43;101201.44;5139597;27;8459;-57
2023/05/11 00:16:38;;;;;;;;;;;;;;;20.49;58.97;101195.00;5138672;27;8274;-57
2023/05/11 00:19:05;;;;;;;;;;;;;;;20.51;59.26;101189.91;5140927;27;8213;-57
2023/05/11 00:21:32;;;;;;;;;;;;;;;20.48;59.06;101185.75;5139889;27;11101;-56
2023/05/11 00:23:59;;;;;;;;;;;;;;;20.49;59.34;101193.00;5140135;27;7973;-57
2023/05/11 00:26:26;;;;;;;;;;;;;;;20.49;59.28;101193.00;5142666;27;8069;-56
2023/05/11 00:28:53;;;;;;;;;;;;;;;20.49;59.12;101190.22;5140229;27;5463;-57
2023/05/11 00:31:20;;;;;;;;;;;;;;;20.49;59.36;101195.81;5137587;27;8055;-56
2023/05/11 00:33:47;;;;;;;;;;;;;;;20.50;59.33;101202.28;5139010;27;14526;-56
2023/05/11 00:36:14;;;;;;;;;;;;;;;20.48;58.95;101193.34;5137955;27;8173;-57
2023/05/11 00:38:44;;;;;;;;;;;;;;;20.50;59.03;101202.28;5139484;27;11929;-57
2023/05/11 00:41:11;;;;;;;;;;;;;;;20.49;58.97;101197.81;5115749;27;11961;-56
2023/05/11 00:43:38;;;;;;;;;;;;;;;20.52;58.60;101192.44;5117031;27;5590;-57
2023/05/11 00:46:05;;;;;;;;;;;;;;;20.55;58.56;101193.78;5116722;27;11647;-57
2023/05/11 00:48:32;;;;;;;;;;;;;;;20.52;59.03;101194.41;5119301;27;5557;-57
2023/05/11 00:50:59;;;;;;;;;;;;;;;20.56;58.76;101195.47;5117259;27;8342;-55
2023/05/11 00:53:26;;;;;;;;;;;;;;;20.56;58.66;101198.28;5119401;27;15486;-58
2023/05/11 00:55:53;;;;;;;;;;;;;;;20.52;58.69;101198.03;5118747;27;8022;-58
2023/05/11 00:58:20;;;;;;;;;;;;;;;20.52;58.38;101206.47;5119392;27;7527;-58
2023/05/11 01:00:47;;;;;;;;;;;;;;;20.50;58.78;101200.31;5115300;27;10187;-59
2023/05/11 01:03:15;;;;;;;;;;;;;;;20.52;58.78;101205.63;5119299;27;10571;-59
2023/05/11 01:05:56;;;;;;;;;;;;;;;20.51;58.86;101204.78;5117166;27;7980;-58
2023/05/11 01:08:27;;;;;;;;;;;;;;;20.55;58.51;101202.22;5118993;27;9696;-58
2023/05/11 01:10:59;;;;;;;;;;;;;;;20.55;58.31;101208.66;5117741;27;8023;-58
2023/05/11 01:13:32;;;;;;;;;;;;;;;20.52;58.43;101203.66;5119299;27;11229;-58
2023/05/11 01:16:01;;;;;;;;;;;;;;;20.51;58.42;101199.19;5116741;27;11134;-59
2023/05/11 01:18:34;;;;;;;;;;;;;;;20.51;58.62;101201.16;5118114;27;6212;-58
2023/05/11 01:21:01;;;;;;;;;;;;;;;20.50;58.60;101205.09;5117386;27;8470;-56
2023/05/11 01:23:35;;;;;;;;;;;;;;;20.49;59.02;101201.44;5118732;27;7995;-56
2023/05/11 01:26:12;;;;;;;;;;;;;;;20.48;58.91;101202.59;5117515;27;12409;-56
2023/05/11 01:28:48;;;;;;;;;;;;;;;20.48;58.87;101208.22;5118527;27;8534;-58
2023/05/11 01:31:16;;;;;;;;;;;;;;;20.48;58.87;101205.41;5116208;27;7977;-56
2023/05/11 01:33:46;;;;;;;;;;;;;;;20.47;59.25;101209.34;5119256;27;5459;-57
2023/05/11 01:36:15;;;;;;;;;;;;;;;20.47;59.01;101211.31;5112735;27;9938;-56
2023/05/11 01:38:45;;;;;;;;;;;;;;;20.47;59.03;101211.31;5118970;27;7516;-57
2023/05/11 01:41:13;;;;;;;;;;;;;;;20.47;59.32;101203.72;5117344;27;5396;-57
2023/05/11 01:43:43;;;;;;;;;;;;;;;20.50;58.84;101210.69;5109347;27;9558;-57
2023/05/11 01:46:11;;;;;;;;;;;;;;;20.49;59.03;101225.88;5113180;27;12409;-57
2023/05/11 01:48:40;;;;;;;;;;;;;;;20.50;58.95;101222.75;5117007;27;13933;-56
2023/05/11 01:51:08;;;;;;;;;;;;;;;20.50;59.04;101227.53;5119065;27;12432;-58
2023/05/11 01:53:36;;;;;;;;;;;;;;;20.50;59.03;101221.94;5118101;27;13557;-57
2023/05/11 01:56:04;;;;;;;;;;;;;;;20.49;59.26;101221.09;5118004;27;8173;-56
2023/05/11 01:58:32;;;;;;;;;;;;;;;20.50;59.04;101224.72;5117736;27;7279;-57
2023/05/11 02:00:59;;;;;;;;;;;;;;;20.47;58.94;101226.19;5113835;27;7523;-57
2023/05/11 02:03:27;;;;;;;;;;;;;;;20.47;59.20;101230.97;5116582;27;12682;-57
2023/05/11 02:05:56;;;;;;;;;;;;;;;20.46;59.30;101226.47;5115352;27;8310;-56
2023/05/11 02:08:23;;;;;;;;;;;;;;;20.49;59.20;101223.88;5118163;27;9337;-56
2023/05/11 02:10:52;;;;;;;;;;;;;;;20.49;59.41;101223.88;5117434;27;9888;-57
2023/05/11 02:13:19;;;;;;;;;;;;;;;20.46;59.64;101227.31;5107555;27;8264;-58
2023/05/11 02:15:49;;;;;;;;;;;;;;;20.47;59.84;101236.56;5113628;27;9992;-56
2023/05/11 02:18:18;;;;;;;;;;;;;;;20.46;59.91;101234.91;5117812;27;9745;-56
2023/05/11 02:20:46;;;;;;;;;;;;;;;20.45;59.72;101234.06;5115615;27;9909;-56
2023/05/11 02:23:13;;;;;;;;;;;;;;;20.46;59.75;101238.53;5118105;27;8168;-56
2023/05/11 02:25:41;;;;;;;;;;;;;;;20.46;59.73;101235.72;5116389;27;7965;-56
2023/05/11 02:28:08;;;;;;;;;;;;;;;20.49;59.53;101237.13;5115822;27;5486;-57
2023/05/11 02:30:39;;;;;;;;;;;;;;;20.46;60.01;101241.34;5118271;27;8018;-56
2023/05/11 02:33:08;;;;;;;;;;;;;;;20.47;59.70;101245.00;5121070;27;11126;-56
2023/05/11 02:35:41;;;;;;;;;;;;;;;20.45;59.98;101242.47;5116291;27;17975;-57
2023/05/11 02:38:08;;;;;;;;;;;;;;;20.46;59.64;101244.16;5121038;27;17051;-57
2023/05/11 02:40:41;;;;;;;;;;;;;;;20.46;60.02;101244.16;5119660;27;11307;-57
2023/05/11 02:43:09;;;;;;;;;;;;;;;20.45;60.02;101244.44;5132304;27;11334;-57
2023/05/11 02:45:37;;;;;;;;;;;;;;;20.46;59.75;101243.31;5138206;27;8174;-58
2023/05/11 02:48:07;;;;;;;;;;;;;;;20.45;60.28;101244.44;5141080;27;14199;-56
2023/05/11 02:50:36;;;;;;;;;;;;;;;20.45;60.35;101241.63;5139898;27;16573;-57
2023/05/11 02:53:06;;;;;;;;;;;;;;;20.45;60.50;101244.44;5142838;27;8192;-56
2023/05/11 02:55:33;;;;;;;;;;;;;;;20.45;60.36;101247.25;5140981;27;8250;-57
2023/05/11 02:58:00;;;;;;;;;;;;;;;20.45;60.51;101244.44;5142213;27;10798;-57
2023/05/11 03:00:27;;;;;;;;;;;;;;;20.44;60.62;101246.44;5138662;27;11053;-58
2023/05/11 03:02:54;;;;;;;;;;;;;;;20.43;60.59;101244.75;5141202;27;10656;-57
2023/05/11 03:05:23;;;;;;;;;;;;;;;20.44;60.64;101245.59;5140297;27;7968;-58
2023/05/11 03:07:50;;;;;;;;;;;;;;;20.44;61.04;101249.25;5141045;27;8411;-58
2023/05/11 03:10:21;;;;;;;;;;;;;;;20.45;61.00;101250.06;5118057;27;10311;-57
2023/05/11 03:12:48;;;;;;;;;;;;;;;20.42;60.82;101249.53;5141005;27;6400;-57
2023/05/11 03:15:15;;;;;;;;;;;;;;;20.45;60.76;101250.91;5139012;27;10375;-57
2023/05/11 03:17:42;;;;;;;;;;;;;;;20.43;60.58;101250.38;5140287;27;8143;-58
2023/05/11 03:20:10;;;;;;;;;;;;;;;20.44;60.87;101252.06;5140077;27;9568;-56
2023/05/11 03:22:37;;;;;;;;;;;;;;;20.43;60.94;101244.75;5141210;27;7603;-57
2023/05/11 03:25:06;;;;;;;;;;;;;;;20.42;60.68;101249.53;5139261;27;8350;-57
2023/05/11 03:27:33;;;;;;;;;;;;;;;20.43;60.66;101244.75;5141555;27;11003;-57
2023/05/11 03:30:04;;;;;;;;;;;;;;;20.43;60.40;101239.16;5119663;27;8459;-58
2023/05/11 03:32:31;;;;;;;;;;;;;;;20.41;60.42;101235.78;5140976;27;8195;-57
2023/05/11 03:34:57;;;;;;;;;;;;;;;20.40;60.74;101237.75;5138030;27;5472;-57
2023/05/11 03:37:25;;;;;;;;;;;;;;;20.42;60.84;101240.28;5123251;27;8169;-57
2023/05/11 03:39:58;;;;;;;;;;;;;;;20.42;60.66;101235.50;5139512;27;8011;-57
2023/05/11 03:42:26;;;;;;;;;;;;;;;20.40;60.55;101242.53;5142301;27;7995;-57
2023/05/11 03:44:57;;;;;;;;;;;;;;;20.41;60.59;101236.63;5139643;27;8005;-57
2023/05/11 03:47:25;;;;;;;;;;;;;;;20.40;60.77;101237.75;5140308;27;5392;-57
2023/05/11 03:49:52;;;;;;;;;;;;;;;20.41;60.56;101241.41;5140999;27;7565;-57
2023/05/11 03:52:20;;;;;;;;;;;;;;;20.40;60.81;101239.72;5141085;27;7700;-57
2023/05/11 03:54:47;;;;;;;;;;;;;;;20.40;60.66;101243.38;5139875;27;7627;-56
2023/05/11 03:57:14;;;;;;;;;;;;;;;20.39;60.92;101238.09;5140520;27;8208;-57
2023/05/11 03:59:41;;;;;;;;;;;;;;;20.37;60.96;101241.19;5140904;27;8514;-56
2023/05/11 04:02:08;;;;;;;;;;;;;;;20.39;60.59;101241.72;5139222;27;12348;-60
2023/05/11 04:04:35;;;;;;;;;;;;;;;20.38;60.59;101240.06;5117214;27;10153;-57
2023/05/11 04:07:02;;;;;;;;;;;;;;;20.37;60.77;101237.53;5139038;27;6673;-56
2023/05/11 04:09:29;;;;;;;;;;;;;;;20.37;60.64;101240.34;5140505;27;7574;-56
2023/05/11 04:11:56;;;;;;;;;;;;;;;20.35;60.66;101243.44;5140343;27;7530;-57
2023/05/11 04:14:24;;;;;;;;;;;;;;;20.38;60.84;101247.63;5139690;27;8080;-57
2023/05/11 04:16:51;;;;;;;;;;;;;;;20.37;60.89;101240.34;5138827;27;10871;-57
2023/05/11 04:19:18;;;;;;;;;;;;;;;20.37;60.31;101243.16;5117601;27;9846;-57
2023/05/11 04:21:46;;;;;;;;;;;;;;;20.37;60.40;101245.97;5139800;27;7320;-57
2023/05/11 04:24:12;;;;;;;;;;;;;;;20.37;60.33;101237.53;5139697;27;10798;-57
2023/05/11 04:26:39;;;;;;;;;;;;;;;20.37;60.37;101248.75;5139266;27;11330;-57
2023/05/11 04:29:06;;;;;;;;;;;;;;;20.35;60.48;101248.25;5139922;27;12245;-57
2023/05/11 04:31:33;;;;;;;;;;;;;;;20.35;60.51;101253.84;5136987;27;10715;-57
2023/05/11 04:34:00;;;;;;;;;;;;;;;20.34;60.42;101257.78;5139390;27;8443;-57
2023/05/11 04:36:27;;;;;;;;;;;;;;;20.33;60.53;101248.53;5138605;27;9551;-57
2023/05/11 04:38:54;;;;;;;;;;;;;;;20.34;60.44;101249.38;5140735;27;9554;-57
2023/05/11 04:41:21;;;;;;;;;;;;;;;20.33;60.48;101247.69;5138173;27;9196;-56
2023/05/11 04:43:48;;;;;;;;;;;;;;;20.33;60.41;101247.69;5138833;27;8192;-56
2023/05/11 04:46:14;;;;;;;;;;;;;;;20.32;60.69;101246.00;5138930;27;8271;-56
2023/05/11 04:48:42;;;;;;;;;;;;;;;20.33;60.66;101250.50;5140264;27;8323;-56
2023/05/11 04:51:09;;;;;;;;;;;;;;;20.32;60.72;101249.66;5119731;27;6584;-56
2023/05/11 04:53:36;;;;;;;;;;;;;;;20.34;60.41;101254.97;5140054;27;5769;-57
2023/05/11 04:56:03;;;;;;;;;;;;;;;20.33;60.60;101247.69;5139557;27;8183;-56
2023/05/11 04:58:30;;;;;;;;;;;;;;;20.31;60.77;101259.22;5138951;27;8248;-57
2023/05/11 05:00:57;;;;;;;;;;;;;;;20.34;60.26;101253.00;5137336;27;8552;-56
2023/05/11 05:03:24;;;;;;;;;;;;;;;20.34;60.82;101261.44;5139279;27;8534;-56
2023/05/11 05:05:51;;;;;;;;;;;;;;;20.33;60.92;101256.13;5137772;27;8367;-56
2023/05/11 05:08:18;;;;;;;;;;;;;;;20.34;60.47;101261.44;5139327;27;7524;-56
2023/05/11 05:10:46;;;;;;;;;;;;;;;20.31;60.68;101259.22;5138499;27;10434;-57
2023/05/11 05:13:15;;;;;;;;;;;;;;;20.32;60.77;101260.03;5138952;27;7982;-56
2023/05/11 05:15:42;;;;;;;;;;;;;;;20.32;60.82;101262.84;5136995;27;8062;-57
2023/05/11 05:18:09;;;;;;;;;;;;;;;20.32;60.84;101262.84;5138695;27;5465;-57
2023/05/11 05:20:36;;;;;;;;;;;;;;;20.31;60.51;101263.97;5138091;27;6313;-57
2023/05/11 05:23:03;;;;;;;;;;;;;;;20.31;60.83;101264.81;5139840;27;8010;-57
2023/05/11 05:25:30;;;;;;;;;;;;;;;20.29;60.77;101271.84;5138401;27;8351;-57
2023/05/11 05:27:57;;;;;;;;;;;;;;;20.28;60.46;101268.19;5139899;27;7973;-57
2023/05/11 05:30:25;;;;;;;;;;;;;;;20.27;60.96;101272.13;5137793;27;8012;-57
2023/05/11 05:32:52;;;;;;;;;;;;;;;20.31;60.62;101269.59;5139967;27;9843;-57
2023/05/11 05:35:19;;;;;;;;;;;;;;;20.27;61.05;101280.56;5138050;27;9849;-57
2023/05/11 05:37:45;;;;;;;;;;;;;;;20.29;60.62;101283.91;5139329;27;14411;-56
2023/05/11 05:40:13;;;;;;;;;;;;;;;20.27;61.01;101288.13;5137955;27;10039;-57
2023/05/11 05:42:39;;;;;;;;;;;;;;;20.28;60.94;101293.47;5139142;27;12343;-57
2023/05/11 05:45:07;;;;;;;;;;;;;;;20.27;60.93;101288.13;5137593;27;9652;-56
2023/05/11 05:47:34;;;;;;;;;;;;;;;20.29;60.61;101286.72;5139784;27;5445;-57
2023/05/11 05:50:01;;;;;;;;;;;;;;;20.28;60.81;101298.22;5120477;27;7552;-58
2023/05/11 05:52:28;;;;;;;;;;;;;;;20.25;60.81;101294.06;5138326;27;11048;-57
2023/05/11 05:54:55;;;;;;;;;;;;;;;20.25;60.87;101294.06;5137993;27;9884;-57
2023/05/11 05:57:21;;;;;;;;;;;;;;;20.26;60.77;101295.72;5115367;27;7779;-57
2023/05/11 05:59:48;;;;;;;;;;;;;;;20.28;60.61;101292.63;5136257;27;12876;-57
2023/05/11 06:02:15;;;;;;;;;;;;;;;20.24;60.81;101292.38;5137513;27;11056;-57
2023/05/11 06:04:42;;;;;;;;;;;;;;;20.24;60.50;101291.53;5139106;27;9127;-57
2023/05/11 06:07:09;;;;;;;;;;;;;;;20.24;60.90;101297.16;5142241;27;7995;-57
2023/05/11 06:09:36;;;;;;;;;;;;;;;20.23;60.59;101301.94;5142544;27;13814;-57
2023/05/11 06:12:05;;;;;;;;;;;;;;;20.23;60.91;101296.31;5124081;27;7544;-56
2023/05/11 06:14:32;;;;;;;;;;;;;;;20.22;60.55;101297.44;5140422;27;8861;-56
2023/05/11 06:16:58;;;;;;;;;;;;;;;20.26;60.81;101303.31;5140782;27;7386;-56
2023/05/11 06:19:25;;;;;;;;;;;;;;;20.27;60.43;101299.34;5122727;27;9271;-56
2023/05/11 06:21:52;;;;;;;;;;;;;;;20.33;60.76;101301.84;5140929;27;8279;-56
2023/05/11 06:24:19;;;;;;;;;;;;;;;20.28;60.81;101307.47;5141381;27;8164;-56
2023/05/11 06:26:46;;;;;;;;;;;;;;;20.22;60.93;101311.47;5142030;27;7968;-56
2023/05/11 06:29:13;;;;;;;;;;;;;;;20.20;60.56;101307.31;5118201;27;10464;-56
2023/05/11 06:31:40;;;;;;;;;;;;;;;20.19;60.35;101308.44;5121852;27;7330;-56
2023/05/11 06:34:08;;;;;;;;;;;;;;;20.16;59.58;101311.84;5141218;27;8644;-55
2023/05/11 06:36:35;;;;;;;;;;;;;;;20.13;59.42;101312.41;5140041;27;11365;-56
2023/05/11 06:39:01;;;;;;;;;;;;;;;20.12;59.62;101311.59;5142163;27;9180;-56
2023/05/11 06:41:28;;;;;;;;;;;;;;;20.11;59.55;101307.13;5142879;27;8348;-55
2023/05/11 06:43:55;;;;;;;;;;;;;;;20.10;59.28;101305.44;5141189;27;6284;-56
2023/05/11 06:46:22;;;;;;;;;;;;;;;20.15;58.96;101315.78;5140073;27;7915;-57
2023/05/11 06:48:49;;;;;;;;;;;;;;;19.94;54.37;101315.97;5140248;27;9467;-59
2023/05/11 06:51:16;;;;;;;;;;;;;;;19.98;54.82;101314.28;5139915;27;14345;-56
2023/05/11 06:53:44;;;;;;;;;;;;;;;19.95;56.15;101323.25;5140679;27;18062;-57
2023/05/11 06:56:11;;;;;;;;;;;;;;;20.02;56.45;101322.09;5114366;27;14226;-57
2023/05/11 06:58:39;;;;;;;;;;;;;;;20.11;56.79;101323.13;5142326;27;7908;-57
2023/05/11 07:01:08;;;;;;;;;;;;;;;20.15;56.70;101322.22;5140306;27;9180;-57
2023/05/11 07:03:36;;;;;;;;;;;;;;;20.17;56.53;101324.75;5140934;27;9202;-57
2023/05/11 07:06:03;;;;;;;;;;;;;;;20.22;56.44;101322.69;5140476;27;8235;-57
2023/05/11 07:08:30;;;;;;;;;;;;;;;20.27;56.55;101327.41;5141428;27;8017;-56
2023/05/11 07:10:57;;;;;;;;;;;;;;;20.34;56.79;101325.13;5140787;27;11158;-56
2023/05/11 07:13:24;;;;;;;;;;;;;;;20.42;56.73;101327.28;5141275;27;7811;-56
2023/05/11 07:15:52;;;;;;;;;;;;;;;20.49;56.62;101319.31;5138891;27;9477;-56
2023/05/11 07:18:23;;;;;;;;;;;;;;;20.54;56.31;101319.28;5141308;27;11239;-56
2023/05/11 07:20:52;;;;;;;;;;;;;;;20.58;56.37;101322.34;5140275;27;7542;-56
2023/05/11 07:23:19;;;;;;;;;;;;;;;20.63;56.28;101331.50;5140687;27;9208;-56
2023/05/11 07:25:46;;;;;;;;;;;;;;;20.68;56.49;101323.03;5139889;27;10200;-56
2023/05/11 07:28:13;;;;;;;;;;;;;;;20.73;56.23;101322.97;5140637;27;11133;-56
2023/05/11 07:30:40;;;;;;;;;;;;;;;20.79;56.06;101323.75;5138951;27;8169;-56
2023/05/11 07:33:07;;;;;;;;;;;;;;;20.82;56.14;101321.16;5141897;27;9183;-56
2023/05/11 07:35:35;;;;;;;;;;;;;;;20.86;56.20;101322.22;5142030;27;7211;-56
2023/05/11 07:38:02;;;;;;;;;;;;;;;20.91;56.73;101329.75;5141835;27;9214;-56
2023/05/11 07:40:29;;;;;;;;;;;;;;;20.98;56.36;101330.22;5121724;27;10256;-56
2023/05/11 07:42:56;;;;;;;;;;;;;;;21.03;56.62;101326.50;5140641;27;12433;-56
2023/05/11 07:45:23;;;;;;;;;;;;;;;21.09;56.21;101330.91;5139877;27;8152;-56
2023/05/11 07:47:49;;;;;;;;;;;;;;;21.14;56.09;101322.44;5140088;27;9181;-57
2023/05/11 07:50:17;;;;;;;;;;;;;;;21.19;56.16;101333.59;5139625;27;10785;-57
2023/05/11 07:52:44;;;;;;;;;;;;;;;21.24;55.93;101325.94;5140480;27;11150;-57
2023/05/11 07:55:11;;;;;;;;;;;;;;;21.28;55.74;101329.81;5139314;27;10733;-57
2023/05/11 07:57:38;;;;;;;;;;;;;;;21.33;55.12;101337.31;5140645;27;9393;-56
2023/05/11 08:00:06;;;;;;;;;;;;;;;21.37;55.13;101332.75;5138008;27;10842;-57
2023/05/11 08:02:33;;;;;;;;;;;;;;;21.42;54.92;101335.50;5140787;27;10928;-57
2023/05/11 08:05:01;;;;;;;;;;;;;;;21.45;54.51;101329.25;5140456;27;14647;-56
2023/05/11 08:07:28;;;;;;;;;;;;;;;21.49;54.49;101327.50;5140933;27;11601;-57
2023/05/11 08:09:55;;;;;;;;;;;;;;;21.52;54.10;101328.88;5141307;27;6577;-57
2023/05/11 08:12:22;;;;;;;;;;;;;;;21.55;54.20;101333.88;5115639;27;7990;-56
2023/05/11 08:14:49;;;;;;;;;;;;;;;21.59;53.82;101340.56;5139068;27;7759;-56
2023/05/11 08:17:16;;;;;;;;;;;;;;;21.60;53.58;101340.25;5122275;27;17139;-57
2023/05/11 08:19:42;;;;;;;;;;;;;;;21.63;53.58;101336.81;5140455;27;7737;-56
2023/05/11 08:22:09;;;;;;;;;;;;;;;21.65;53.32;101344.97;5140384;27;5854;-57
2023/05/11 08:24:36;;;;;;;;;;;;;;;21.66;53.40;101344.66;5139926;27;7602;-57
2023/05/11 08:27:03;;;;;;;;;;;;;;;21.68;53.16;101345.19;5119062;27;9281;-56
2023/05/11 08:29:36;;;;;;;;;;;;;;;21.70;53.12;101342.06;5139013;27;10797;-56
2023/05/11 08:32:03;;;;;;;;;;;;;;;21.72;53.13;101346.22;5114090;27;11070;-56
2023/05/11 08:34:30;;;;;;;;;;;;;;;21.72;52.86;101336.97;5139045;27;8154;-56
2023/05/11 08:37:00;;;;;;;;;;;;;;;21.74;52.59;101345.94;5139369;27;14330;-57
2023/05/11 08:39:27;;;;;;;;;;;;;;;21.74;52.69;101343.97;5138550;27;9807;-57
2023/05/11 08:42:14;;;;;;;;;;;;;;;21.76;52.57;101345.63;5139018;27;10971;-57
2023/05/11 08:44:42;;;;;;;;;;;;;;;21.77;52.73;101336.88;5138558;27;11881;-57
2023/05/11 08:47:10;;;;;;;;;;;;;;;21.78;52.47;101343.34;5139599;27;10764;-57
2023/05/11 08:49:49;;;;;;;;;;;;;;;21.79;52.20;101340.22;5123519;27;7983;-57
2023/05/11 08:52:17;;;;;;;;;;;;;;;21.80;52.15;101347.53;5140615;27;9291;-57
2023/05/11 08:54:44;;;;;;;;;;;;;;;21.80;51.87;101349.50;5139122;27;11151;-56
2023/05/11 08:57:12;;;;;;;;;;;;;;;21.81;51.83;101349.19;5138760;27;10356;-56
2023/05/11 08:59:43;;;;;;;;;;;;;;;21.84;51.92;101347.75;5138594;27;7688;-57
2023/05/11 09:02:17;;;;;;;;;;;;;;;21.85;51.70;101347.41;5138301;27;7580;-57
2023/05/11 09:04:49;;;;;;;;;;;;;;;21.85;51.83;101343.78;5138653;27;9250;-56
2023/05/11 09:07:18;;;;;;;;;;;;;;;21.86;51.93;101351.06;5139608;27;11599;-57
2023/05/11 09:09:47;;;;;;;;;;;;;;;21.88;51.90;101349.63;5138474;27;11560;-56
2023/05/11 09:12:16;;;;;;;;;;;;;;;21.88;52.00;101341.19;5136306;27;5371;-56
2023/05/11 09:14:45;;;;;;;;;;;;;;;21.88;51.97;101345.97;5138247;27;14556;-57
2023/05/11 09:17:15;;;;;;;;;;;;;;;21.89;52.17;101344.84;5140083;27;9713;-57
2023/05/11 09:19:56;;;;;;;;;;;;;;;21.91;51.75;101356.59;5139150;27;10930;-57
2023/05/11 09:22:23;;;;;;;;;;;;;;;21.88;51.80;101351.59;5141064;27;17065;-56
2023/05/11 09:24:50;;;;;;;;;;;;;;;21.89;51.73;101342.88;5139409;27;7520;-56
2023/05/11 09:27:17;;;;;;;;;;;;;;;21.85;51.74;101347.41;5141061;27;11180;-56
2023/05/11 09:29:47;;;;;;;;;;;;;;;21.87;51.36;101341.50;5138572;27;8252;-56
2023/05/11 09:32:17;;;;;;;;;;;;;;;21.88;51.23;101354.41;5138970;27;10823;-55
2023/05/11 09:34:44;;;;;;;;;;;;;;;21.82;51.35;101341.56;5118145;27;11406;-56
2023/05/11 09:37:15;;;;;;;;;;;;;;;21.80;51.10;101339.09;5120812;27;11753;-57
2023/05/11 09:39:42;;;;;;;;;;;;;;;21.81;51.39;101342.72;5138455;27;7935;-62
2023/05/11 09:42:29;;;;;;;;;;;;;;;21.78;51.07;101347.00;5137780;27;8143;-57
2023/05/11 09:44:56;;;;;;;;;;;;;;;21.83;51.06;101340.44;5137139;27;10750;-57
2023/05/11 09:47:23;;;;;;;;;;;;;;;21.85;51.44;101336.16;5138239;27;8138;-58
2023/05/11 09:49:50;;;;;;;;;;;;;;;21.86;51.65;101337.00;5138994;27;9164;-57
2023/05/11 09:52:19;;;;;;;;;;;;;;;21.87;51.45;101347.13;5138973;27;10656;-56
2023/05/11 09:54:49;;;;;;;;;;;;;;;21.80;50.96;101341.91;5138042;27;11624;-56
2023/05/11 09:57:26;;;;;;;;;;;;;;;21.79;50.71;101345.00;5138739;27;11606;-57
2023/05/11 09:59:53;;;;;;;;;;;;;;;21.77;51.31;101350.94;5118667;27;15779;-56
2023/05/11 10:02:21;;;;;;;;;;;;;;;21.77;51.31;101347.28;5137897;27;9812;-60
2023/05/11 10:04:50;;;;;;;;;;;;;;;21.73;51.05;101342.28;5138286;27;5478;-56
2023/05/11 10:07:25;;;;;;;;;;;;;;;21.71;51.33;101338.94;5137020;27;11578;-56
2023/05/11 10:09:53;;;;;;;;;;;;;;;21.69;51.29;101341.22;5138955;27;7903;-56
2023/05/11 10:12:21;;;;;;;;;;;;;;;21.70;51.25;101344.88;5140366;27;5438;-57
2023/05/11 10:14:50;;;;;;;;;;;;;;;21.69;51.41;101332.78;5137509;27;7506;-57
2023/05/11 10:17:17;;;;;;;;;;;;;;;21.68;51.14;101336.75;5137989;27;10776;-57
2023/05/11 10:19:46;;;;;;;;;;;;;;;21.67;51.09;101335.06;5137428;27;10984;-56
2023/05/11 10:22:13;;;;;;;;;;;;;;;21.68;50.98;101339.56;5138942;27;6630;-57
2023/05/11 10:24:40;;;;;;;;;;;;;;;21.65;51.29;101340.19;5137964;27;7768;-57
2023/05/11 10:27:08;;;;;;;;;;;;;;;21.67;50.98;101331.41;5139258;27;7820;-56
2023/05/11 10:29:37;;;;;;;;;;;;;;;21.64;50.93;101335.69;5136830;27;9747;-56
2023/05/11 10:32:06;;;;;;;;;;;;;;;21.62;51.10;101332.34;5113373;27;16407;-57
2023/05/11 10:34:34;;;;;;;;;;;;;;;21.60;51.20;101326.19;5137313;27;14636;-57
2023/05/11 10:37:01;;;;;;;;;;;;;;;21.61;51.16;101330.69;5136696;27;7993;-56
2023/05/11 10:39:29;;;;;;;;;;;;;;;21.72;50.87;101331.34;5139072;27;6403;-57
2023/05/11 10:42:06;;;;;;;;;;;;;;;21.66;50.95;101336.22;5138650;27;11852;-57
2023/05/11 10:44:34;;;;;;;;;;;;;;;21.66;50.94;101329.78;5136995;27;14307;-57
2023/05/11 10:47:11;;;;;;;;;;;;;;;21.64;50.99;101329.22;5137017;27;14660;-57
2023/05/11 10:49:45;;;;;;;;;;;;;;;21.62;51.24;101321.09;5137006;27;11944;-56
2023/05/11 10:52:22;;;;;;;;;;;;;;;21.62;51.35;101329.53;5141588;27;10774;-56
2023/05/11 10:55:01;;;;;;;;;;;;;;;21.69;51.52;101327.16;5140650;27;10206;-58
2023/05/11 10:57:40;;;;;;;;;;;;;;;21.87;53.45;101325.44;5141304;27;9179;-58
2023/05/11 11:00:30;;;;;;;;;;;;;;;21.84;54.12;101328.06;5119887;27;11932;-58
2023/05/11 11:03:15;;;;;;;;;;;;;;;21.78;54.91;101329.28;5140034;27;12336;-58
2023/05/11 11:05:43;;;;;;;;;;;;;;;21.77;54.58;101336.03;5134096;27;9153;-58
2023/05/11 11:08:13;;;;;;;;;;;;;;;21.74;54.16;101332.72;5142818;27;10648;-58
2023/05/11 11:10:44;;;;;;;;;;;;;;;21.70;53.58;101331.66;5136391;27;11659;-57
2023/05/11 11:13:13;;;;;;;;;;;;;;;21.69;53.48;101329.97;5137093;27;9979;-58
2023/05/11 11:15:50;;;;;;;;;;;;;;;21.66;53.19;101333.41;5136173;27;7750;-57
2023/05/11 11:18:21;;;;;;;;;;;;;;;21.64;53.21;101332.03;5141590;27;7721;-57
2023/05/11 11:20:51;;;;;;;;;;;;;;;21.60;53.31;101330.97;5138643;27;8008;-57
2023/05/11 11:23:28;;;;;;;;;;;;;;;21.59;53.13;101335.78;5140279;27;7627;-56
2023/05/11 11:25:55;;;;;;;;;;;;;;;21.58;52.72;101333.25;5139500;27;10816;-57
2023/05/11 11:28:22;;;;;;;;;;;;;;;21.54;52.90;101327.41;5140012;27;15508;-57
2023/05/11 11:31:09;;;;;;;;;;;;;;;21.53;52.85;101320.13;5138440;27;9222;-57
2023/05/11 11:33:36;;;;;;;;;;;;;;;21.55;52.87;101320.66;5139801;27;7992;-57
2023/05/11 11:36:04;;;;;;;;;;;;;;;21.59;52.85;101320.88;5121166;27;7691;-56
2023/05/11 11:38:32;;;;;;;;;;;;;;;21.61;52.84;101321.41;5121567;27;7574;-57
2023/05/11 11:40:59;;;;;;;;;;;;;;;21.63;52.87;101316.28;5139037;27;5475;-57
2023/05/11 11:43:27;;;;;;;;;;;;;;;21.69;52.80;101323.53;5139186;27;7536;-57
2023/05/11 11:45:59;;;;;;;;;;;;;;;21.79;52.58;101314.91;5137118;27;10368;-59
2023/05/11 11:48:30;;;;;;;;;;;;;;;21.91;52.53;101314.41;5139771;27;11730;-57
2023/05/11 11:51:02;;;;;;;;;;;;;;;21.95;52.61;101319.13;5138387;27;9184;-58
2023/05/11 11:53:50;;;;;;;;;;;;;;;22.00;52.62;101318.22;5138838;27;14710;-57
2023/05/11 11:56:17;;;;;;;;;;;;;;;22.03;52.50;101318.41;5139253;27;5515;-57
2023/05/11 11:58:45;;;;;;;;;;;;;;;22.06;52.29;101314.16;5140066;27;7774;-59
2023/05/11 12:01:14;;;;;;;;;;;;;;;22.07;52.55;101316.69;5135288;27;12962;-59
2023/05/11 12:03:42;;;;;;;;;;;;;;;22.11;52.36;101314.09;5137811;27;10343;-56
2023/05/11 12:06:10;;;;;;;;;;;;;;;22.12;52.26;101321.38;5138654;27;12545;-59
2023/05/11 12:08:39;;;;;;;;;;;;;;;22.14;52.26;101321.88;5117924;27;10414;-58
2023/05/11 12:11:07;;;;;;;;;;;;;;;22.15;52.13;101315.97;5138364;27;6524;-58
2023/05/11 12:13:34;;;;;;;;;;;;;;;22.17;52.06;101315.63;5115566;27;8974;-58
2023/05/11 12:16:11;;;;;;;;;;;;;;;22.18;52.01;101320.97;5137098;27;6307;-58
2023/05/11 12:18:38;;;;;;;;;;;;;;;22.20;52.00;101323.47;5138593;27;8413;-59
2023/05/11 12:21:06;;;;;;;;;;;;;;;22.20;52.11;101315.03;5137862;27;6232;-59
2023/05/11 12:23:34;;;;;;;;;;;;;;;22.22;52.22;101326.78;5119869;27;8057;-59
2023/05/11 12:26:02;;;;;;;;;;;;;;;22.21;51.93;101310.25;5139043;27;9997;-59
2023/05/11 12:28:29;;;;;;;;;;;;;;;22.24;52.05;101320.88;5138537;27;14323;-59
2023/05/11 12:30:56;;;;;;;;;;;;;;;22.24;52.00;101323.69;5112727;27;13957;-60
2023/05/11 12:33:25;;;;;;;;;;;;;;;22.24;52.33;101318.06;5137997;27;5731;-59
2023/05/11 12:35:53;;;;;;;;;;;;;;;22.23;52.32;101317.22;5137783;27;7862;-59
2023/05/11 12:38:21;;;;;;;;;;;;;;;22.23;52.28;101327.63;5138606;27;5634;-59
2023/05/11 12:40:48;;;;;;;;;;;;;;;22.21;52.38;101324.31;5137416;27;7980;-59
2023/05/11 12:43:16;;;;;;;;;;;;;;;22.21;52.27;101329.94;5119724;27;10385;-59
2023/05/11 12:45:46;;;;;;;;;;;;;;;22.21;52.31;101339.22;5135618;27;10229;-59
2023/05/11 12:48:14;;;;;;;;;;;;;;;22.17;52.39;101335.34;5139869;27;8607;-59
2023/05/11 12:50:45;;;;;;;;;;;;;;;22.17;52.36;101336.16;5136255;27;8171;-59